EST,Max TemperatureF,Mean TemperatureF,Min TemperatureF,Max Dew PointF,MeanDew PointF,Min DewpointF,Max Humidity, Mean Humidity, Min Humidity, Max Sea Level PressureIn, Mean Sea Level PressureIn, Min Sea Level PressureIn, Max VisibilityMiles, Mean VisibilityMiles, Min VisibilityMiles, Max Wind SpeedMPH, Mean Wind SpeedMPH, Max Gust SpeedMPH,PrecipitationIn, CloudCover, Events, WindDirDegrees
2011-12-1,53,43,33,37,33,30,100,72,41,30.35,30.26,30.11,10,10,10,10,3,16,0.00,0,,346
2011-12-2,62,45,28,41,33,28,100,76,31,30.45,30.38,30.34,10,9,2,9,1,,0.00,0,,225
2011-12-3,55,44,32,43,38,32,100,80,47,30.63,30.58,30.50,10,10,5,9,3,,0.00,0,,43
2011-12-4,66,49,32,55,45,32,100,90,64,30.57,30.48,30.40,10,7,0,5,0,,0.00,3,,150
2011-12-5,69,55,41,63,54,41,100,91,64,30.40,30.30,30.22,10,8,0,16,3,22,0.00,7,,149
2011-12-6,73,66,59,63,61,59,100,89,69,30.19,30.11,30.03,10,10,5,13,6,20,0.00,4,,187
2011-12-7,75,63,51,64,62,50,100,84,65,29.98,29.77,29.48,10,9,2,23,10,30,0.00,6,,200
2011-12-8,51,42,33,43,35,28,100,77,43,30.36,30.20,29.87,10,10,10,10,5,18,0.00,1,,307
2011-12-9,51,40,30,48,40,30,100,94,76,30.36,30.29,30.22,10,10,7,6,0,,0.00,4,,330
2011-12-10,51,42,33,45,37,34,100,76,50,30.47,30.32,30.21,10,10,10,12,4,16,0.00,2,,1
2011-12-11,48,38,28,30,27,25,100,70,40,30.66,30.59,30.50,10,10,10,10,3,16,0.00,0,,33
2011-12-12,53,43,33,46,39,30,100,86,72,30.58,30.52,30.45,10,10,10,7,3,,0.00,3,,16
2011-12-13,57,44,30,39,34,30,100,78,36,30.46,30.42,30.36,10,10,2,8,1,,0.00,0,,2
2011-12-14,59,46,32,41,36,30,100,71,41,30.43,30.38,30.34,10,10,10,5,1,,0.00,6,,83
2011-12-15,69,56,42,55,49,41,100,76,49,30.33,30.17,30.03,10,10,3,15,5,24,0.00,0,,208
2011-12-16,66,54,42,57,49,34,100,75,44,30.21,30.12,30.03,10,9,4,14,7,20,0.00,4,,287
2011-12-17,46,40,32,43,36,32,100,83,61,30.24,30.19,30.15,10,10,3,12,3,16,0.00,6,,356
2011-12-18,48,38,28,34,30,27,100,79,46,30.38,30.29,30.22,10,10,4,9,1,18,0.00,3,,321
2011-12-19,57,40,24,34,30,25,100,73,38,30.35,30.29,30.20,10,10,10,16,3,21,0.00,0,,211
2011-12-20,59,50,42,54,43,34,100,77,59,30.22,30.17,30.13,10,10,10,7,3,,0.00,2,,213
2011-12-21,66,60,55,64,60,54,100,96,88,30.15,30.04,29.95,10,9,2,14,7,22,0.00,7,,195
2011-12-22,69,63,57,64,63,57,100,92,83,30.14,30.05,29.98,10,10,1,10,5,18,0.00,6,,192
2011-12-23,69,60,50,63,50,39,78,67,52,30.26,30.06,29.82,10,10,10,16,10,24,0.00,6,,343
2011-12-24,53,44,35,45,40,36,100,80,58,30.46,30.38,30.24,10,10,10,10,1,20,0.00,3,,30
2011-12-25,55,42,28,43,37,28,100,84,62,30.43,30.31,30.11,10,10,10,10,2,16,0.00,0,,216
2011-12-26,53,44,35,39,33,30,93,64,41,30.38,30.26,30.08,10,10,10,12,6,20,0.00,0,,324
2011-12-27,64,48,33,63,46,32,100,87,63,30.28,29.86,29.50,10,9,0,25,5,31,0.00,3,,179
2011-12-28,55,47,39,43,33,27,76,59,38,30.03,29.82,29.59,10,10,10,22,12,29,0.00,0,,271
2011-12-29,51,40,28,37,31,27,100,72,41,30.13,30.05,30.01,10,10,10,10,2,,0.00,0,,190
2011-12-30,62,47,32,43,38,32,100,68,39,30.12,30.03,29.98,10,10,10,14,5,17,0.00,1,,191
2011-12-31,66,52,39,54,46,39,100,73,43,30.15,29.98,29.90,10,10,2,16,7,24,0.00,4,,246